Time;durP1;ratioP1;P1;durP2;ratioP2;P2;SDS_P1;SDS_P2;PMS_P1;PMS_P2;Temp;Humidity;BMP_temperature;BMP_pressure;BME280_temperature;BME280_humidity;BME280_pressure;Samples;Min_cycle;Max_cycle;Signal;HPM_P1;HPM_P2
2024/01/17 00:00:09;;;;;;;8.60;6.40;;;;;;;;;;5094982;28;20205;-79
2024/01/17 00:02:39;;;;;;;7.73;6.90;;;;;;;;;;5093974;28;20193;-79
2024/01/17 00:05:10;;;;;;;9.60;7.40;;;;;;;;;;5094503;28;20221;-79
2024/01/17 00:07:38;;;;;;;7.33;5.87;;;;;;;;;;5113221;28;20195;-79
2024/01/17 00:10:09;;;;;;;7.43;6.13;;;;;;;;;;5113186;28;20203;-79
2024/01/17 00:12:37;;;;;;;8.77;6.63;;;;;;;;;;5094735;28;20224;-79
2024/01/17 00:15:06;;;;;;;12.40;7.67;;;;;;;;;;5094438;28;20220;-79
2024/01/17 00:17:35;;;;;;;6.60;5.43;;;;;;;;;;5112556;28;20226;-79
2024/01/17 00:20:06;;;;;;;8.93;6.23;;;;;;;;;;5094489;28;20225;-79
2024/01/17 00:22:35;;;;;;;6.43;5.83;;;;;;;;;;5093994;28;20194;-79
2024/01/17 00:25:05;;;;;;;5.77;5.27;;;;;;;;;;5111719;28;20194;-79
2024/01/17 00:27:33;;;;;;;6.43;5.03;;;;;;;;;;5094616;28;20257;-79
2024/01/17 00:30:02;;;;;;;8.07;7.27;;;;;;;;;;5094604;28;20217;-79
2024/01/17 00:32:32;;;;;;;5.33;4.50;;;;;;;;;;5112521;28;20212;-79
2024/01/17 00:35:00;;;;;;;6.77;6.07;;;;;;;;;;5112047;28;20223;-79
2024/01/17 00:37:30;;;;;;;8.10;7.30;;;;;;;;;;5094714;28;20208;-79
2024/01/17 00:39:59;;;;;;;10.53;6.67;;;;;;;;;;5112560;28;20206;-79
2024/01/17 00:42:27;;;;;;;7.77;6.17;;;;;;;;;;5112148;28;20194;-79
2024/01/17 00:44:56;;;;;;;7.17;5.80;;;;;;;;;;5112076;28;20192;-79
2024/01/17 00:47:24;;;;;;;12.67;7.40;;;;;;;;;;5112265;28;20241;-79
2024/01/17 00:49:53;;;;;;;8.50;7.73;;;;;;;;;;5112135;28;20240;-79
2024/01/17 00:52:21;;;;;;;10.93;7.43;;;;;;;;;;5112234;28;20192;-79
2024/01/17 00:54:51;;;;;;;7.77;7.17;;;;;;;;;;5093505;28;20223;-79
2024/01/17 00:57:20;;;;;;;7.57;6.47;;;;;;;;;;5112282;28;20204;-79
2024/01/17 00:59:48;;;;;;;6.80;6.10;;;;;;;;;;5094365;28;20227;-79
2024/01/17 01:02:16;;;;;;;12.17;6.50;;;;;;;;;;5093850;28;20193;-79
2024/01/17 01:04:45;;;;;;;6.33;5.80;;;;;;;;;;5093817;28;20202;-79
2024/01/17 01:07:15;;;;;;;12.20;8.23;;;;;;;;;;5111538;28;20188;-79
2024/01/17 01:09:43;;;;;;;9.63;8.63;;;;;;;;;;5111958;28;20202;-79
2024/01/17 01:12:13;;;;;;;9.87;8.97;;;;;;;;;;5111539;28;20254;-79
2024/01/17 01:14:42;;;;;;;7.70;5.83;;;;;;;;;;5094133;28;20219;-79
2024/01/17 01:17:10;;;;;;;7.30;5.57;;;;;;;;;;5093304;28;20270;-79
2024/01/17 01:19:39;;;;;;;9.17;6.40;;;;;;;;;;5111699;28;20198;-79
2024/01/17 01:22:07;;;;;;;8.30;7.50;;;;;;;;;;5093553;28;20201;-79
2024/01/17 01:24:36;;;;;;;8.03;7.20;;;;;;;;;;5112062;28;20197;-79
2024/01/17 01:27:04;;;;;;;8.80;7.73;;;;;;;;;;5093357;28;20205;-79
2024/01/17 01:29:34;;;;;;;9.30;7.97;;;;;;;;;;5093875;28;20224;-79
2024/01/17 01:32:03;;;;;;;7.37;5.83;;;;;;;;;;5093335;28;20238;-79
2024/01/17 01:34:32;;;;;;;8.67;7.77;;;;;;;;;;5094769;28;20202;-79
2024/01/17 01:37:00;;;;;;;10.63;9.50;;;;;;;;;;5097062;28;20209;-79
2024/01/17 01:39:29;;;;;;;9.60;8.63;;;;;;;;;;5115261;28;20198;-79
2024/01/17 01:41:58;;;;;;;9.20;7.90;;;;;;;;;;5097539;28;20190;-79
2024/01/17 01:44:26;;;;;;;10.43;8.33;;;;;;;;;;5097537;28;20193;-79
2024/01/17 01:46:57;;;;;;;8.90;7.83;;;;;;;;;;5097336;28;20289;-79
2024/01/17 01:49:26;;;;;;;10.57;9.57;;;;;;;;;;5115110;28;20245;-79
2024/01/17 01:51:55;;;;;;;11.27;9.47;;;;;;;;;;5115821;28;20239;-79
2024/01/17 01:54:24;;;;;;;9.90;8.37;;;;;;;;;;5097467;28;20233;-79
2024/01/17 01:56:53;;;;;;;12.13;9.60;;;;;;;;;;5097350;28;20217;-79
2024/01/17 01:59:22;;;;;;;11.27;9.83;;;;;;;;;;5096994;28;20197;-79
2024/01/17 02:01:51;;;;;;;11.00;8.83;;;;;;;;;;5115359;28;20206;-79
2024/01/17 02:04:21;;;;;;;10.60;8.30;;;;;;;;;;5115403;28;20185;-79
2024/01/17 02:06:51;;;;;;;9.77;8.80;;;;;;;;;;5096984;28;20190;-79
2024/01/17 02:09:20;;;;;;;9.63;8.30;;;;;;;;;;5114741;28;20196;-79
2024/01/17 02:11:48;;;;;;;10.67;9.57;;;;;;;;;;5115000;28;20207;-79
2024/01/17 02:14:19;;;;;;;8.77;7.87;;;;;;;;;;5115068;28;20224;-79
2024/01/17 02:16:51;;;;;;;5.57;4.73;;;;;;;;;;5114931;28;20233;-79
2024/01/17 02:19:22;;;;;;;12.87;10.63;;;;;;;;;;5096759;28;20218;-79
2024/01/17 02:21:50;;;;;;;8.53;7.73;;;;;;;;;;5096346;28;20226;-79
2024/01/17 02:24:23;;;;;;;9.90;8.53;;;;;;;;;;5096928;28;20198;-79
2024/01/17 02:26:51;;;;;;;8.87;7.43;;;;;;;;;;5096801;28;20214;-79
2024/01/17 02:29:20;;;;;;;8.33;7.50;;;;;;;;;;5114662;28;20198;-79
2024/01/17 02:31:49;;;;;;;9.87;8.63;;;;;;;;;;5096594;28;20229;-79
2024/01/17 02:34:18;;;;;;;8.47;7.07;;;;;;;;;;5115317;28;20188;-79
2024/01/17 02:36:47;;;;;;;11.53;10.43;;;;;;;;;;5114917;28;20247;-79
2024/01/17 02:39:16;;;;;;;13.10;9.87;;;;;;;;;;5096373;28;20210;-79
2024/01/17 02:41:46;;;;;;;13.40;12.00;;;;;;;;;;5114068;28;20252;-79
2024/01/17 02:44:14;;;;;;;12.57;10.27;;;;;;;;;;5114650;28;20202;-79
2024/01/17 02:46:43;;;;;;;11.33;10.23;;;;;;;;;;5113681;28;20273;-79
2024/01/17 02:49:14;;;;;;;10.53;7.07;;;;;;;;;;5096287;28;20309;-79
2024/01/17 02:51:42;;;;;;;10.67;9.50;;;;;;;;;;5095642;28;20460;-79
2024/01/17 02:54:11;;;;;;;11.00;9.90;;;;;;;;;;5114806;28;20195;-79
2024/01/17 02:56:40;;;;;;;11.50;10.30;;;;;;;;;;5096198;28;20212;-79
2024/01/17 02:59:09;;;;;;;8.13;7.10;;;;;;;;;;5096295;28;20235;-79
2024/01/17 03:01:38;;;;;;;14.53;12.00;;;;;;;;;;5113874;28;20202;-79
2024/01/17 03:04:06;;;;;;;13.13;10.03;;;;;;;;;;5114033;28;20225;-79
2024/01/17 03:06:35;;;;;;;14.63;10.20;;;;;;;;;;5113838;28;20201;-79
2024/01/17 03:09:03;;;;;;;11.97;10.77;;;;;;;;;;5095792;28;20202;-79
2024/01/17 03:11:32;;;;;;;12.80;10.33;;;;;;;;;;5113885;28;20246;-79
2024/01/17 03:14:01;;;;;;;10.30;9.30;;;;;;;;;;5095241;28;20196;-79
2024/01/17 03:16:31;;;;;;;12.10;9.97;;;;;;;;;;5113855;28;20320;-79
2024/01/17 03:19:00;;;;;;;10.20;9.13;;;;;;;;;;5095983;28;20198;-79
2024/01/17 03:21:29;;;;;;;11.30;10.07;;;;;;;;;;5095029;28;20208;-79
2024/01/17 03:23:58;;;;;;;12.00;10.70;;;;;;;;;;5095154;28;20212;-79
2024/01/17 03:26:27;;;;;;;11.20;10.17;;;;;;;;;;5095686;28;20293;-79
2024/01/17 03:28:55;;;;;;;12.87;11.60;;;;;;;;;;5113748;28;20213;-79
2024/01/17 03:31:24;;;;;;;12.57;10.27;;;;;;;;;;5113496;28;20193;-79
2024/01/17 03:33:53;;;;;;;16.73;12.37;;;;;;;;;;5112838;28;20213;-79
2024/01/17 03:36:22;;;;;;;5.87;4.67;;;;;;;;;;5113232;28;20255;-79
2024/01/17 03:38:51;;;;;;;14.47;11.17;;;;;;;;;;5095370;28;20201;-79
2024/01/17 03:41:19;;;;;;;13.67;11.03;;;;;;;;;;5095472;28;20192;-79
2024/01/17 03:43:48;;;;;;;12.40;9.50;;;;;;;;;;5094516;28;20211;-79
2024/01/17 03:46:16;;;;;;;14.10;12.63;;;;;;;;;;5095570;28;20198;-79
2024/01/17 03:48:45;;;;;;;13.77;12.37;;;;;;;;;;5095146;28;20212;-79
2024/01/17 03:51:15;;;;;;;10.70;9.53;;;;;;;;;;5094689;28;20209;-79
2024/01/17 03:53:46;;;;;;;12.47;11.00;;;;;;;;;;5094457;28;20347;-79
2024/01/17 03:56:15;;;;;;;13.20;9.90;;;;;;;;;;5113190;28;20190;-79
2024/01/17 03:58:43;;;;;;;12.97;8.93;;;;;;;;;;5094872;28;20247;-79
2024/01/17 04:01:12;;;;;;;10.13;9.13;;;;;;;;;;5113187;28;20466;-79
2024/01/17 04:03:41;;;;;;;8.57;7.73;;;;;;;;;;5112074;28;20237;-79
2024/01/17 04:06:10;;;;;;;14.60;12.70;;;;;;;;;;5094772;28;20196;-79
2024/01/17 04:08:42;;;;;;;13.17;10.00;;;;;;;;;;5095126;28;20225;-79
2024/01/17 04:11:11;;;;;;;14.27;11.43;;;;;;;;;;5113320;28;20200;-79
2024/01/17 04:13:39;;;;;;;12.40;11.30;;;;;;;;;;5094103;28;20201;-79
2024/01/17 04:16:08;;;;;;;13.60;12.33;;;;;;;;;;5112204;28;20186;-79
2024/01/17 04:18:37;;;;;;;11.27;9.70;;;;;;;;;;5094525;28;20214;-79
2024/01/17 04:21:05;;;;;;;13.70;11.10;;;;;;;;;;5094493;28;20210;-79
2024/01/17 04:23:34;;;;;;;11.60;10.47;;;;;;;;;;5112301;28;20202;-79
2024/01/17 04:26:04;;;;;;;14.43;9.93;;;;;;;;;;5094100;28;20204;-79
2024/01/17 04:28:33;;;;;;;6.37;5.27;;;;;;;;;;5112780;28;20188;-79
2024/01/17 04:31:01;;;;;;;8.90;7.17;;;;;;;;;;5112557;28;20198;-79
2024/01/17 04:33:30;;;;;;;12.47;10.47;;;;;;;;;;5112137;28;20198;-79
2024/01/17 04:35:59;;;;;;;13.17;11.87;;;;;;;;;;5094150;28;20198;-79
2024/01/17 04:38:27;;;;;;;11.90;10.53;;;;;;;;;;5112175;28;20221;-79
2024/01/17 04:40:56;;;;;;;11.23;9.03;;;;;;;;;;5094251;28;20294;-79
2024/01/17 04:43:26;;;;;;;12.13;10.53;;;;;;;;;;5094066;28;20287;-79
2024/01/17 04:45:55;;;;;;;13.07;10.20;;;;;;;;;;5093849;28;20284;-79
2024/01/17 04:48:23;;;;;;;13.87;8.90;;;;;;;;;;5111678;28;20193;-79
2024/01/17 04:50:58;;;;;;;12.87;11.53;;;;;;;;;;5112044;28;20292;-79
2024/01/17 04:53:27;;;;;;;15.57;11.73;;;;;;;;;;5112022;28;20200;-79
2024/01/17 04:55:56;;;;;;;13.13;11.77;;;;;;;;;;5093566;28;20286;-79
2024/01/17 04:58:24;;;;;;;11.50;10.03;;;;;;;;;;5111900;28;20220;-79
2024/01/17 05:00:54;;;;;;;15.13;12.47;;;;;;;;;;5112035;28;20185;-79
2024/01/17 05:03:22;;;;;;;12.23;8.43;;;;;;;;;;5112043;28;20221;-79
2024/01/17 05:05:51;;;;;;;16.47;12.20;;;;;;;;;;5093387;28;20192;-79
2024/01/17 05:08:20;;;;;;;11.77;10.63;;;;;;;;;;5093560;28;20210;-79
2024/01/17 05:10:49;;;;;;;15.67;12.10;;;;;;;;;;5111791;28;20238;-79
2024/01/17 05:13:17;;;;;;;9.07;7.97;;;;;;;;;;5093698;28;20200;-79
2024/01/17 05:15:46;;;;;;;17.67;11.67;;;;;;;;;;5111354;28;20377;-79
2024/01/17 05:18:16;;;;;;;11.63;10.43;;;;;;;;;;5111216;28;20233;-79
2024/01/17 05:20:45;;;;;;;13.97;12.27;;;;;;;;;;5111841;28;20279;-79
2024/01/17 05:23:13;;;;;;;12.53;10.00;;;;;;;;;;5111531;28;20205;-79
2024/01/17 05:25:42;;;;;;;7.80;7.07;;;;;;;;;;5111644;28;20193;-79
2024/01/17 05:28:10;;;;;;;6.27;5.67;;;;;;;;;;5093312;28;20188;-79
2024/01/17 05:30:38;;;;;;;18.17;9.27;;;;;;;;;;5111867;28;20193;-79
2024/01/17 05:33:07;;;;;;;14.20;12.70;;;;;;;;;;5093634;28;20204;-79
2024/01/17 05:35:37;;;;;;;31.60;18.63;;;;;;;;;;5111413;28;20193;-79
2024/01/17 05:38:06;;;;;;;15.27;8.87;;;;;;;;;;5093065;28;20220;-79
2024/01/17 05:40:34;;;;;;;14.63;13.17;;;;;;;;;;5111274;28;20197;-79
2024/01/17 05:43:03;;;;;;;9.80;7.80;;;;;;;;;;5093329;28;20208;-79
2024/01/17 05:45:32;;;;;;;16.00;14.30;;;;;;;;;;5092981;28;20205;-79
2024/01/17 05:48:01;;;;;;;15.40;13.90;;;;;;;;;;5092670;28;20198;-79
2024/01/17 05:50:30;;;;;;;16.53;14.93;;;;;;;;;;5111182;28;20247;-79
2024/01/17 05:53:00;;;;;;;19.20;14.50;;;;;;;;;;5093233;28;20207;-79
2024/01/17 05:55:28;;;;;;;12.27;10.73;;;;;;;;;;5111235;28;20193;-79
2024/01/17 05:57:57;;;;;;;17.07;15.27;;;;;;;;;;5093064;28;20312;-79
2024/01/17 06:00:25;;;;;;;20.27;16.50;;;;;;;;;;5110873;28;20201;-79
2024/01/17 06:02:54;;;;;;;15.87;14.43;;;;;;;;;;5093407;28;20558;-79
2024/01/17 06:05:23;;;;;;;15.70;14.00;;;;;;;;;;5093029;28;20201;-79
2024/01/17 06:07:52;;;;;;;18.17;14.57;;;;;;;;;;5111077;28;20204;-79
2024/01/17 06:10:23;;;;;;;5.07;4.77;;;;;;;;;;5092251;28;20221;-78
2024/01/17 06:12:52;;;;;;;3.67;3.47;;;;;;;;;;5093102;28;20278;-78
2024/01/17 06:15:20;;;;;;;6.97;6.27;;;;;;;;;;5110767;28;20217;-78
2024/01/17 06:17:49;;;;;;;2.40;2.30;;;;;;;;;;5111009;28;20240;-78
2024/01/17 06:20:18;;;;;;;4.13;3.83;;;;;;;;;;5110467;28;20247;-78
2024/01/17 06:22:46;;;;;;;1.63;1.63;;;;;;;;;;5096567;28;20291;-78
2024/01/17 06:25:15;;;;;;;2.30;2.20;;;;;;;;;;5114962;28;20190;-79
2024/01/17 06:27:45;;;;;;;1.27;1.27;;;;;;;;;;5096096;28;20245;-79
2024/01/17 06:30:14;;;;;;;10.23;2.73;;;;;;;;;;5095841;28;20206;-79
2024/01/17 06:32:42;;;;;;;1.80;1.73;;;;;;;;;;5114295;28;20197;-79
2024/01/17 06:35:11;;;;;;;3.67;3.13;;;;;;;;;;5114535;28;20222;-79
2024/01/17 06:37:40;;;;;;;5.17;4.67;;;;;;;;;;5114348;28;20194;-79
2024/01/17 06:40:10;;;;;;;9.00;7.47;;;;;;;;;;5113691;28;20331;-79
2024/01/17 06:42:39;;;;;;;3.70;3.40;;;;;;;;;;5114116;28;20200;-79
2024/01/17 06:45:10;;;;;;;8.27;7.43;;;;;;;;;;5096212;28;20289;-79
2024/01/17 06:47:39;;;;;;;6.60;6.03;;;;;;;;;;5096366;28;20243;-79
2024/01/17 06:50:09;;;;;;;7.77;5.73;;;;;;;;;;5113883;28;20213;-79
2024/01/17 06:52:39;;;;;;;3.73;3.43;;;;;;;;;;5113797;28;20194;-79
2024/01/17 06:55:08;;;;;;;4.33;3.93;;;;;;;;;;5095685;28;20201;-79
2024/01/17 06:57:37;;;;;;;8.63;7.17;;;;;;;;;;5096302;28;20193;-79
2024/01/17 07:00:06;;;;;;;8.37;6.17;;;;;;;;;;5095543;28;20210;-78
2024/01/17 07:02:36;;;;;;;4.77;3.50;;;;;;;;;;5113684;28;20290;-77
2024/01/17 07:05:05;;;;;;;5.77;3.50;;;;;;;;;;5114576;28;20190;-79
2024/01/17 07:07:33;;;;;;;14.77;12.23;;;;;;;;;;5114362;28;20282;-79
2024/01/17 07:10:03;;;;;;;14.40;12.23;;;;;;;;;;5113901;28;20189;-79
2024/01/17 07:12:31;;;;;;;15.20;13.63;;;;;;;;;;5095343;28;20227;-79
2024/01/17 07:15:00;;;;;;;10.87;8.77;;;;;;;;;;5096176;28;20207;-79
2024/01/17 07:17:29;;;;;;;16.00;13.63;;;;;;;;;;5096061;28;20232;-79
2024/01/17 07:19:59;;;;;;;16.83;14.80;;;;;;;;;;5095510;28;20292;-79
2024/01/17 07:22:27;;;;;;;13.90;12.23;;;;;;;;;;5113371;28;20193;-79
2024/01/17 07:24:56;;;;;;;14.23;10.87;;;;;;;;;;5113532;28;20196;-79
2024/01/17 07:27:24;;;;;;;12.03;9.73;;;;;;;;;;5095780;28;20192;-79
2024/01/17 07:29:53;;;;;;;15.97;13.47;;;;;;;;;;5095666;28;20192;-79
2024/01/17 07:32:21;;;;;;;18.77;15.50;;;;;;;;;;5112784;28;20201;-80
2024/01/17 07:34:50;;;;;;;13.43;12.07;;;;;;;;;;5113762;28;20200;-79
2024/01/17 07:37:21;;;;;;;17.50;13.67;;;;;;;;;;5095661;28;20208;-79
2024/01/17 07:39:49;;;;;;;17.33;12.17;;;;;;;;;;5095136;28;20224;-79
2024/01/17 07:42:18;;;;;;;18.07;13.53;;;;;;;;;;5094250;28;20201;-80
2024/01/17 07:44:47;;;;;;;13.03;9.80;;;;;;;;;;5094772;28;20265;-80
2024/01/17 07:47:16;;;;;;;19.80;15.87;;;;;;;;;;5113303;28;20192;-80
2024/01/17 07:49:45;;;;;;;11.00;9.03;;;;;;;;;;5113579;28;20239;-80
2024/01/17 07:52:16;;;;;;;14.27;12.87;;;;;;;;;;5094572;28;20196;-80
2024/01/17 07:54:49;;;;;;;19.70;13.33;;;;;;;;;;5094768;28;20271;-80
2024/01/17 07:57:18;;;;;;;15.57;12.60;;;;;;;;;;5094922;28;20200;-80
2024/01/17 07:59:48;;;;;;;18.53;14.83;;;;;;;;;;5094852;28;20307;-80
2024/01/17 08:02:26;;;;;;;13.03;11.63;;;;;;;;;;5094128;28;20196;-79
2024/01/17 08:04:56;;;;;;;13.27;11.60;;;;;;;;;;5094431;28;20264;-80
2024/01/17 08:07:26;;;;;;;14.23;10.43;;;;;;;;;;5113280;28;20222;-80
2024/01/17 08:09:56;;;;;;;16.50;11.60;;;;;;;;;;5112734;28;20203;-80
2024/01/17 08:12:29;;;;;;;9.67;6.87;;;;;;;;;;5094477;28;20291;-80
2024/01/17 08:15:00;;;;;;;16.80;10.90;;;;;;;;;;5094327;28;20219;-80
2024/01/17 08:17:29;;;;;;;13.13;10.40;;;;;;;;;;5112423;28;20289;-80
2024/01/17 08:19:59;;;;;;;15.73;13.30;;;;;;;;;;5094538;28;20212;-80
2024/01/17 08:22:38;;;;;;;;;;;;;;;;;;;;;
2024/01/17 08:25:09;;;;;;;18.97;13.60;;;;;;;;;;5105803;28;20611;-80
2024/01/17 08:27:39;;;;;;;14.50;11.33;;;;;;;;;;5112415;28;20192;-80
2024/01/17 08:30:10;;;;;;;17.90;12.17;;;;;;;;;;5094569;28;20192;-81
2024/01/17 08:32:39;;;;;;;18.70;12.60;;;;;;;;;;5112221;28;20192;-80
2024/01/17 08:35:07;;;;;;;12.63;10.87;;;;;;;;;;5093828;28;20219;-80
2024/01/17 08:37:36;;;;;;;7.73;5.97;;;;;;;;;;5094373;28;20197;-81
2024/01/17 08:40:07;;;;;;;16.37;12.93;;;;;;;;;;5112421;28;20309;-80
2024/01/17 08:42:36;;;;;;;12.33;11.20;;;;;;;;;;5094159;28;20197;-81
2024/01/17 08:45:06;;;;;;;9.23;6.93;;;;;;;;;;5093124;28;20225;-80
2024/01/17 08:47:34;;;;;;;15.60;12.93;;;;;;;;;;5111998;28;20242;-80
2024/01/17 08:50:04;;;;;;;21.60;13.73;;;;;;;;;;5112091;28;20205;-80
2024/01/17 08:52:33;;;;;;;12.60;10.33;;;;;;;;;;5112366;28;20456;-80
2024/01/17 08:55:02;;;;;;;15.67;12.30;;;;;;;;;;5111718;28;20196;-80
2024/01/17 08:57:31;;;;;;;14.37;12.87;;;;;;;;;;5093792;28;20200;-80
2024/01/17 09:00:01;;;;;;;15.37;11.73;;;;;;;;;;5112021;28;20216;-80
2024/01/17 09:02:29;;;;;;;21.80;14.77;;;;;;;;;;5112283;28;20211;-80
2024/01/17 09:05:01;;;;;;;16.97;13.27;;;;;;;;;;5111812;28;20199;-80
2024/01/17 09:07:30;;;;;;;16.37;12.17;;;;;;;;;;5111582;28;20192;-80
2024/01/17 09:10:03;;;;;;;15.50;12.93;;;;;;;;;;5111967;28;20284;-80
2024/01/17 09:12:32;;;;;;;17.53;13.97;;;;;;;;;;5093629;28;20260;-80
2024/01/17 09:15:05;;;;;;;17.67;15.37;;;;;;;;;;5093983;28;20196;-80
2024/01/17 09:17:34;;;;;;;12.97;10.63;;;;;;;;;;5111114;28;20228;-80
2024/01/17 09:20:04;;;;;;;19.47;13.77;;;;;;;;;;5093692;28;20262;-80
2024/01/17 09:22:35;;;;;;;16.90;13.37;;;;;;;;;;5111354;28;20200;-80
2024/01/17 09:25:04;;;;;;;16.70;12.67;;;;;;;;;;5093357;28;20264;-80
2024/01/17 09:27:33;;;;;;;12.10;10.67;;;;;;;;;;5093420;28;20214;-80
2024/01/17 09:30:03;;;;;;;13.30;9.23;;;;;;;;;;5093673;28;20199;-79
2024/01/17 09:32:32;;;;;;;16.90;12.43;;;;;;;;;;5093514;28;20200;-80
2024/01/17 09:35:01;;;;;;;16.27;13.53;;;;;;;;;;5093733;28;20231;-80
2024/01/17 09:37:29;;;;;;;11.17;9.93;;;;;;;;;;5110823;28;20196;-80
2024/01/17 09:39:58;;;;;;;15.83;12.13;;;;;;;;;;5093477;28;20222;-80
2024/01/17 09:42:26;;;;;;;16.40;14.00;;;;;;;;;;5111706;28;20291;-80
2024/01/17 09:44:56;;;;;;;14.87;12.80;;;;;;;;;;5111944;28;20192;-80
2024/01/17 09:47:26;;;;;;;15.93;12.40;;;;;;;;;;5110899;28;20283;-80
2024/01/17 09:49:55;;;;;;;17.10;12.83;;;;;;;;;;5110925;28;20232;-80
2024/01/17 09:52:24;;;;;;;10.13;6.37;;;;;;;;;;5097679;28;20197;-81
2024/01/17 09:54:53;;;;;;;10.60;8.90;;;;;;;;;;5093774;28;20234;-80
2024/01/17 09:57:28;;;;;;;13.30;11.07;;;;;;;;;;5087277;28;20219;-80
2024/01/17 10:00:06;;;;;;;14.80;12.20;;;;;;;;;;5076234;28;20188;-81
2024/01/17 10:02:37;;;;;;;10.83;8.20;;;;;;;;;;5080227;28;20233;-80
2024/01/17 10:05:07;;;;;;;16.67;14.73;;;;;;;;;;5096936;28;20192;-81
2024/01/17 10:07:35;;;;;;;14.57;12.17;;;;;;;;;;5096962;28;20192;-80
2024/01/17 10:10:05;;;;;;;13.00;9.93;;;;;;;;;;5097042;28;20197;-80
2024/01/17 10:12:33;;;;;;;17.57;12.67;;;;;;;;;;5115405;28;20283;-80
2024/01/17 10:15:07;;;;;;;11.23;9.37;;;;;;;;;;5118359;27;20239;-80
2024/01/17 10:17:37;;;;;;;12.77;9.50;;;;;;;;;;5119809;27;20306;-80
2024/01/17 10:20:07;;;;;;;15.87;11.30;;;;;;;;;;5115249;28;20194;-80
2024/01/17 10:22:36;;;;;;;13.63;11.17;;;;;;;;;;5114661;28;20373;-80
2024/01/17 10:25:05;;;;;;;11.00;9.63;;;;;;;;;;5097033;28;20192;-80
2024/01/17 10:27:35;;;;;;;14.40;9.33;;;;;;;;;;5114791;28;20207;-81
2024/01/17 10:30:04;;;;;;;10.00;9.03;;;;;;;;;;5096668;28;20205;-80
2024/01/17 10:32:33;;;;;;;15.13;13.20;;;;;;;;;;5096450;28;20197;-80
2024/01/17 10:35:06;;;;;;;16.70;10.97;;;;;;;;;;5114727;28;20202;-80
2024/01/17 10:37:36;;;;;;;11.40;6.67;;;;;;;;;;5114897;28;20201;-80
2024/01/17 10:40:09;;;;;;;14.20;12.03;;;;;;;;;;5095864;28;20197;-80
2024/01/17 10:42:40;;;;;;;14.47;11.73;;;;;;;;;;5096240;28;20193;-80
2024/01/17 10:45:20;;;;;;;13.50;9.50;;;;;;;;;;5096714;28;20201;-79
2024/01/17 10:47:50;;;;;;;15.20;13.57;;;;;;;;;;5114428;28;20192;-79
2024/01/17 10:50:20;;;;;;;11.70;7.10;;;;;;;;;;5113660;28;20293;-79
2024/01/17 10:52:52;;;;;;;13.77;10.33;;;;;;;;;;5113811;28;20204;-79
2024/01/17 10:55:27;;;;;;;11.97;10.63;;;;;;;;;;5095982;28;20205;-79
2024/01/17 10:57:59;;;;;;;12.67;10.03;;;;;;;;;;5114076;28;20354;-80
2024/01/17 11:00:31;;;;;;;10.13;7.97;;;;;;;;;;5095775;28;20193;-80
2024/01/17 11:03:01;;;;;;;3.70;3.40;;;;;;;;;;5113708;28;20287;-80
2024/01/17 11:05:35;;;;;;;10.63;8.90;;;;;;;;;;5114409;28;20201;-80
2024/01/17 11:08:05;;;;;;;9.70;8.37;;;;;;;;;;5095218;28;20193;-80
2024/01/17 11:10:43;;;;;;;5.70;5.30;;;;;;;;;;5095999;28;20261;-80
2024/01/17 11:13:13;;;;;;;5.73;5.17;;;;;;;;;;5113746;28;20246;-80
2024/01/17 11:15:42;;;;;;;12.10;6.53;;;;;;;;;;5114369;28;20193;-80
2024/01/17 11:18:11;;;;;;;12.57;9.40;;;;;;;;;;5113692;28;20238;-80
2024/01/17 11:20:42;;;;;;;8.07;5.50;;;;;;;;;;5095699;28;20204;-80
2024/01/17 11:23:16;;;;;;;11.53;9.80;;;;;;;;;;5095301;28;20296;-80
2024/01/17 11:25:52;;;;;;;14.87;11.47;;;;;;;;;;5095792;28;20217;-80
2024/01/17 11:28:22;;;;;;;8.80;7.03;;;;;;;;;;5095799;28;20201;-80
2024/01/17 11:30:56;;;;;;;3.27;3.03;;;;;;;;;;5095297;28;20238;-80
2024/01/17 11:33:26;;;;;;;12.13;10.80;;;;;;;;;;5094961;28;20230;-80
2024/01/17 11:35:56;;;;;;;11.53;9.53;;;;;;;;;;5095994;28;20218;-80
2024/01/17 11:38:32;;;;;;;10.60;9.50;;;;;;;;;;5113737;28;20207;-80
2024/01/17 11:41:06;;;;;;;10.17;8.30;;;;;;;;;;5095211;28;20286;-79
2024/01/17 11:44:05;;;;;;;8.43;6.13;;;;;;;;;;5113589;28;20205;-80
2024/01/17 11:46:44;;;;;;;8.67;5.73;;;;;;;;;;5095779;28;20212;-80
2024/01/17 11:49:15;;;;;;;6.97;6.20;;;;;;;;;;5095012;28;20261;-79
2024/01/17 11:51:45;;;;;;;1.83;1.73;;;;;;;;;;5113238;28;20196;-79
2024/01/17 11:54:15;;;;;;;12.80;7.33;;;;;;;;;;5094855;28;20207;-80
2024/01/17 11:56:43;;;;;;;10.40;7.17;;;;;;;;;;5095422;28;20198;-80
2024/01/17 11:59:12;;;;;;;9.57;7.20;;;;;;;;;;5095456;28;20209;-80
2024/01/17 12:01:42;;;;;;;9.20;6.47;;;;;;;;;;5095154;28;20221;-80
2024/01/17 12:04:14;;;;;;;9.33;7.03;;;;;;;;;;5094711;28;20246;-80
2024/01/17 12:06:49;;;;;;;5.00;3.53;;;;;;;;;;5113538;28;20238;-80
2024/01/17 12:09:28;;;;;;;5.37;3.70;;;;;;;;;;5095003;28;20225;-80
2024/01/17 12:11:56;;;;;;;7.27;5.50;;;;;;;;;;5094836;28;20229;-80
2024/01/17 12:14:29;;;;;;;10.30;5.07;;;;;;;;;;5112691;28;20206;-80
2024/01/17 12:16:57;;;;;;;10.77;7.53;;;;;;;;;;5094375;28;20306;-80
2024/01/17 12:22:13;;;;;;;4.00;3.43;;;;;;;;;;5111397;28;20253;-80
2024/01/17 12:24:44;;;;;;;6.40;5.77;;;;;;;;;;5093807;28;20208;-80
2024/01/17 12:27:36;;;;;;;15.40;8.53;;;;;;;;;;5112694;28;20203;-80
2024/01/17 12:30:04;;;;;;;2.33;2.23;;;;;;;;;;5094589;28;20202;-80
2024/01/17 12:32:35;;;;;;;11.63;6.63;;;;;;;;;;5112137;28;20279;-80
2024/01/17 12:35:04;;;;;;;11.50;8.17;;;;;;;;;;5094005;28;20204;-79
2024/01/17 12:37:34;;;;;;;17.33;9.93;;;;;;;;;;5094878;28;20198;-79
2024/01/17 12:40:08;;;;;;;8.63;6.80;;;;;;;;;;5095303;28;20204;-80
2024/01/17 12:42:38;;;;;;;9.47;4.63;;;;;;;;;;5112330;28;20208;-80
2024/01/17 12:45:10;;;;;;;13.80;10.33;;;;;;;;;;5112180;28;20252;-80
2024/01/17 12:47:38;;;;;;;12.53;9.40;;;;;;;;;;5112611;28;20273;-80
2024/01/17 12:50:08;;;;;;;10.27;6.17;;;;;;;;;;5112953;28;20228;-80
2024/01/17 12:52:38;;;;;;;8.63;7.60;;;;;;;;;;5112609;28;20199;-80
2024/01/17 12:55:07;;;;;;;5.87;5.13;;;;;;;;;;5094391;28;20253;-80
2024/01/17 12:57:38;;;;;;;9.57;8.57;;;;;;;;;;5094593;28;20251;-80
2024/01/17 13:00:10;;;;;;;12.70;9.13;;;;;;;;;;5112077;28;20198;-80
2024/01/17 13:02:39;;;;;;;14.87;9.57;;;;;;;;;;5112001;28;20211;-80
2024/01/17 13:08:50;;;;;;;11.63;8.87;;;;;;;;;;5094673;28;20190;-82
2024/01/17 13:11:46;;;;;;;2.40;2.27;;;;;;;;;;5112654;28;20279;-80
2024/01/17 13:14:16;;;;;;;2.40;2.30;;;;;;;;;;5111536;28;20187;-79
2024/01/17 13:16:46;;;;;;;1.13;1.13;;;;;;;;;;5111419;28;20227;-79
2024/01/17 13:19:37;;;;;;;5.50;3.27;;;;;;;;;;5093955;28;20290;-80
2024/01/17 13:22:06;;;;;;;3.37;2.97;;;;;;;;;;5093716;28;20211;-80
2024/01/17 13:24:34;;;;;;;1.20;1.20;;;;;;;;;;5093638;28;20495;-80
2024/01/17 13:27:05;;;;;;;4.17;2.57;;;;;;;;;;5111641;28;20199;-80
2024/01/17 13:29:36;;;;;;;11.43;10.17;;;;;;;;;;5093708;28;20224;-80
2024/01/17 13:32:05;;;;;;;9.87;8.67;;;;;;;;;;5097434;28;20199;-80
2024/01/17 13:34:34;;;;;;;11.70;8.07;;;;;;;;;;5098065;28;20206;-80
2024/01/17 13:37:03;;;;;;;11.03;5.80;;;;;;;;;;5115861;28;20256;-80
2024/01/17 13:39:32;;;;;;;3.33;3.03;;;;;;;;;;5096843;28;20218;-80
2024/01/17 13:42:05;;;;;;;3.03;2.60;;;;;;;;;;5115865;28;20191;-80
2024/01/17 13:44:35;;;;;;;3.23;3.10;;;;;;;;;;5097893;28;20199;-79
2024/01/17 13:47:04;;;;;;;2.20;2.10;;;;;;;;;;5097441;28;20192;-80
2024/01/17 13:49:36;;;;;;;1.00;1.00;;;;;;;;;;5097469;28;20351;-80
2024/01/17 13:52:08;;;;;;;4.53;4.17;;;;;;;;;;5115573;28;20196;-80
2024/01/17 13:54:41;;;;;;;4.93;3.73;;;;;;;;;;5097821;28;20450;-80
2024/01/17 13:57:14;;;;;;;3.00;2.80;;;;;;;;;;5097212;28;20369;-80
2024/01/17 13:59:43;;;;;;;3.07;1.60;;;;;;;;;;5115021;28;20254;-80
2024/01/17 14:02:11;;;;;;;0.93;0.93;;;;;;;;;;5097579;28;20199;-80
2024/01/17 14:04:40;;;;;;;7.23;6.00;;;;;;;;;;5097573;28;20195;-80
2024/01/17 14:07:09;;;;;;;5.53;4.97;;;;;;;;;;5097115;28;20200;-80
2024/01/17 14:09:39;;;;;;;1.97;1.73;;;;;;;;;;5114821;28;20232;-80
2024/01/17 14:12:14;;;;;;;1.47;1.47;;;;;;;;;;5115205;28;20195;-80
2024/01/17 14:14:43;;;;;;;4.23;4.00;;;;;;;;;;5115278;28;20188;-81
2024/01/17 14:17:16;;;;;;;1.40;1.40;;;;;;;;;;5096925;28;20326;-80
2024/01/17 14:19:45;;;;;;;2.87;2.67;;;;;;;;;;5096506;28;20294;-80
2024/01/17 14:22:14;;;;;;;12.27;3.97;;;;;;;;;;5096613;28;20296;-80
2024/01/17 14:24:43;;;;;;;1.10;1.10;;;;;;;;;;5114928;28;20195;-80
2024/01/17 14:27:11;;;;;;;4.83;4.07;;;;;;;;;;5115049;28;20200;-80
2024/01/17 14:29:41;;;;;;;16.10;8.70;;;;;;;;;;5096944;28;20204;-80
2024/01/17 14:32:18;;;;;;;7.20;6.50;;;;;;;;;;5114455;28;20202;-81
2024/01/17 14:34:47;;;;;;;8.60;7.67;;;;;;;;;;5096598;28;20192;-80
2024/01/17 14:37:16;;;;;;;13.00;9.03;;;;;;;;;;5096978;28;20294;-80
2024/01/17 14:39:47;;;;;;;8.40;5.27;;;;;;;;;;5114295;28;20188;-79
2024/01/17 14:42:21;;;;;;;9.93;4.90;;;;;;;;;;5094543;28;20203;-80
2024/01/17 14:44:55;;;;;;;1.67;1.63;;;;;;;;;;5096560;28;20196;-80
2024/01/17 14:47:23;;;;;;;5.83;4.50;;;;;;;;;;5096513;28;20210;-80
2024/01/17 14:49:52;;;;;;;4.90;4.23;;;;;;;;;;5096231;28;20216;-80
2024/01/17 14:52:24;;;;;;;1.70;1.63;;;;;;;;;;5096500;28;20191;-81